首页
METAR-TAF:

METAR-TAF

机场 :

Volk Field Air National Guard Base

Camp Douglas, 威斯康辛州, 美国

纬度: 43-56N, 经度: 090-16W, 海拔: 277米

当前天气观测

该预报发布于52分钟前的11:56 UTC
静风
温度 -15°C
湿度 71%
气压 1021 hPa
能見度: 16.1公里
天空无云

METAR: KVOK 291156Z AUTO 00000KT 10SM CLR M15/M19 A3014 RMK AO2 SLP229 T11551190 11124 21157 55000

时间: 06:48 (12:48 UTC)

预报

该预报发布于19小时和48分钟前的17:00 UTC
预报有效从28日的 17点(UTC)到 29日的 23点(UTC)
风速9节,风向西北
能见度10公里或以上
少量云层高于2300英尺
成为
从 29日的 17点(UTC)到 29日的 18点(UTC)
风速12节,风向西南
能见度10公里或以上
散云层高于2300英尺
成为
从 29日的 21点(UTC)到 29日的 22点(UTC)
风速9节,风向
能見度: 0209
散云层高于1500英尺

TAF: KVOK 281700Z 2817/2923 31009KT 9999 FEW023 QNH3004INS BECMG 2917/2918 22012KT 9999 SCT023 QNH2997INS BECMG 2921/2922 19009KT 9999 SCT015 QNH2991INS TXM02/2917Z TNM10/2911Z LAST NO AMDS AFT 2821 NEXT 0209

超过4000个机场的气象观测和天气预报(METAR&TAF报告)。

可查询的气象台以黄色和红色小点在地图上表示。

将鼠标移到小点上方,可查看气象台名称。

然后点击查看天气观测和预报。

如需切换地图:点击带黑十字的绿色按钮放大地图;点击带横线的绿色按钮缩小地图;或者点击绿色箭头查看邻近地区的地图。


METAR-TAF: